createdAt,value
2023-04-16T00:02:04.817Z,13.98
2023-04-16T00:07:06.129Z,14.07
2023-04-16T00:12:07.379Z,13.55
2023-04-16T00:17:09.078Z,13.10
2023-04-16T00:22:10.372Z,14.85
2023-04-16T00:27:11.759Z,13.10
2023-04-16T00:32:13.222Z,14.07
2023-04-16T00:37:14.507Z,12.65
2023-04-16T00:42:15.997Z,15.13
2023-04-16T00:47:17.454Z,15.63
2023-04-16T00:52:18.728Z,15.88
2023-04-16T00:57:21.031Z,17.03
2023-04-16T01:02:22.450Z,14.90
2023-04-16T01:07:23.781Z,14.27
2023-04-16T01:12:25.021Z,15.80
2023-04-16T01:17:26.322Z,17.30
2023-04-16T01:22:28.236Z,17.00
2023-04-16T01:27:29.498Z,16.15
2023-04-16T01:32:34.512Z,15.97
2023-04-16T01:37:35.918Z,16.23
2023-04-16T01:42:37.836Z,16.27
2023-04-16T01:47:39.338Z,15.47
2023-04-16T01:52:40.585Z,15.75
2023-04-16T01:57:41.869Z,15.07
2023-04-16T02:02:43.294Z,16.60
2023-04-16T02:07:44.634Z,17.50
2023-04-16T02:12:46.268Z,15.87
2023-04-16T02:17:48.774Z,17.85
2023-04-16T02:22:50.201Z,18.97
2023-04-16T02:27:51.540Z,18.58
2023-04-16T02:32:52.897Z,16.58
2023-04-16T02:37:54.390Z,17.83
2023-04-16T02:42:55.707Z,20.85
2023-04-16T02:47:57.098Z,19.30
2023-04-16T02:52:58.472Z,18.92
2023-04-16T02:57:59.767Z,18.58
2023-04-16T03:03:01.415Z,19.93
2023-04-16T03:08:05.736Z,20.02
2023-04-16T03:13:07.129Z,18.93
2023-04-16T03:18:08.379Z,18.27
2023-04-16T03:23:09.658Z,19.60
2023-04-16T03:28:10.924Z,20.67
2023-04-16T03:33:12.160Z,21.13
2023-04-16T03:38:13.476Z,21.07
2023-04-16T03:43:14.768Z,20.42
2023-04-16T03:48:16.352Z,20.58
2023-04-16T03:53:17.731Z,19.23
2023-04-16T03:58:19.239Z,19.25
2023-04-16T04:03:20.872Z,18.47
2023-04-16T04:08:22.253Z,18.08
2023-04-16T04:13:23.601Z,20.52
2023-04-16T04:18:24.907Z,18.47
2023-04-16T04:23:26.193Z,19.88
2023-04-16T04:28:27.452Z,18.60
2023-04-16T04:33:28.775Z,19.58
2023-04-16T04:38:30.414Z,20.30
2023-04-16T04:43:31.793Z,21.37
2023-04-16T04:48:33.061Z,17.95
2023-04-16T04:53:34.565Z,19.67
2023-04-16T04:58:35.967Z,19.23
2023-04-16T05:03:40.178Z,19.70
2023-04-16T05:08:41.590Z,19.40
2023-04-16T05:13:42.847Z,18.08
2023-04-16T05:18:45.326Z,20.23
2023-04-16T05:23:46.624Z,19.17
2023-04-16T05:28:47.935Z,21.88
2023-04-16T05:33:49.334Z,17.43
2023-04-16T05:38:50.680Z,17.70
2023-04-16T05:43:51.963Z,19.00
2023-04-16T05:48:53.259Z,17.92
2023-04-16T05:53:54.605Z,17.17
2023-04-16T05:58:55.888Z,16.83
2023-04-16T06:03:57.245Z,16.17
2023-04-16T06:08:58.615Z,16.90
2023-04-16T06:13:59.862Z,16.85
2023-04-16T06:19:01.306Z,16.92
2023-04-16T06:24:02.612Z,19.73
2023-04-16T06:29:03.897Z,17.75
2023-04-16T06:34:05.285Z,18.67
2023-04-16T06:39:06.674Z,16.23
2023-04-16T06:44:10.991Z,16.92
2023-04-16T06:49:12.366Z,17.10
2023-04-16T06:54:13.647Z,17.23
2023-04-16T06:59:14.903Z,17.67
2023-04-16T07:04:16.274Z,15.60
2023-04-16T07:09:18.006Z,16.42
2023-04-16T07:14:19.375Z,15.17
2023-04-16T07:19:21.050Z,15.43
2023-04-16T07:24:22.338Z,16.87
2023-04-16T07:29:23.674Z,17.65
2023-04-16T07:34:24.976Z,16.15
2023-04-16T07:39:26.354Z,15.90
2023-04-16T07:44:27.762Z,16.75
2023-04-16T07:49:29.066Z,13.57
2023-04-16T07:54:30.478Z,13.75
2023-04-16T07:59:31.749Z,13.40
2023-04-16T08:04:33.405Z,13.63
2023-04-16T08:09:38.171Z,15.02
2023-04-16T08:14:41.180Z,15.80
2023-04-16T08:19:42.909Z,18.33
2023-04-16T08:24:51.419Z,14.93
2023-04-16T08:29:52.718Z,13.60
2023-04-16T08:34:57.162Z,14.45
2023-04-16T08:39:58.518Z,13.67
2023-04-16T08:45:06.273Z,16.17
2023-04-16T08:50:08.788Z,14.57
2023-04-16T08:55:12.739Z,17.10
2023-04-16T09:00:14.537Z,13.88
2023-04-16T09:05:25.442Z,16.53
2023-04-16T09:10:27.031Z,15.25
2023-04-16T09:15:29.387Z,15.95
2023-04-16T09:20:30.873Z,17.57
2023-04-16T09:25:35.716Z,17.60
2023-04-16T09:30:37.545Z,14.23
2023-04-16T09:35:46.520Z,16.38
2023-04-16T09:40:47.893Z,16.42
2023-04-16T09:45:53.233Z,15.37
2023-04-16T09:50:54.594Z,16.55
2023-04-16T09:55:56.840Z,14.90
2023-04-16T10:01:01.927Z,14.05
2023-04-16T10:06:29.230Z,16.23
2023-04-16T10:11:30.811Z,13.27
2023-04-16T10:16:32.323Z,14.65
2023-04-16T10:21:34.492Z,13.87
2023-04-16T10:26:36.090Z,14.68
2023-04-16T10:31:37.656Z,13.82
2023-04-16T10:36:40.101Z,15.00
2023-04-16T10:41:42.491Z,14.60
2023-04-16T10:46:44.721Z,19.80
2023-04-16T10:51:56.333Z,19.50
2023-04-16T10:57:04.552Z,22.20
2023-04-16T11:02:12.972Z,16.20
2023-04-16T11:07:19.182Z,13.75
2023-04-16T11:12:29.853Z,12.07
2023-04-16T11:17:54.259Z,12.27
2023-04-16T11:22:56.600Z,13.18
2023-04-16T11:28:01.379Z,15.47
2023-04-16T11:33:03.296Z,18.15
2023-04-16T11:38:06.287Z,15.87
2023-04-16T11:43:15.661Z,13.90
2023-04-16T11:48:16.969Z,13.45
2023-04-16T11:53:18.305Z,12.13
2023-04-16T11:58:20.767Z,15.45
2023-04-16T12:03:46.106Z,14.47
2023-04-16T12:08:47.746Z,14.10
2023-04-16T12:14:08.208Z,11.85
2023-04-16T12:19:11.576Z,13.07
2023-04-16T12:24:14.028Z,13.07
2023-04-16T12:29:15.795Z,14.53
2023-04-16T12:34:17.664Z,14.13
2023-04-16T12:39:19.012Z,14.68
2023-04-16T12:44:20.717Z,12.07
2023-04-16T12:49:22.008Z,11.18
2023-04-16T12:54:23.315Z,13.53
2023-04-16T12:59:24.652Z,10.95
2023-04-16T13:04:26.208Z,12.40
2023-04-16T13:09:28.491Z,14.03
2023-04-16T13:14:29.847Z,13.57
2023-04-16T13:19:35.356Z,14.07
2023-04-16T13:24:36.723Z,12.70
2023-04-16T13:29:38.078Z,12.52
2023-04-16T13:34:39.448Z,13.73
2023-04-16T13:39:40.873Z,17.15
2023-04-16T13:44:42.636Z,14.67
2023-04-16T13:49:43.948Z,14.13
2023-04-16T13:54:45.248Z,11.70
2023-04-16T13:59:46.855Z,15.53
2023-04-16T14:04:48.647Z,12.93
2023-04-16T14:09:49.971Z,16.97
2023-04-16T14:14:51.289Z,14.30
2023-04-16T14:19:52.589Z,13.90
2023-04-16T14:24:53.851Z,12.43
2023-04-16T14:29:55.094Z,15.25
2023-04-16T14:34:56.465Z,15.73
2023-04-16T14:39:57.703Z,17.70
2023-04-16T14:44:58.985Z,16.90
2023-04-16T14:50:00.920Z,16.77
2023-04-16T14:55:02.388Z,16.38
2023-04-16T15:00:07.842Z,14.63
2023-04-16T15:05:10.403Z,15.75
2023-04-16T15:10:12.583Z,15.10
2023-04-16T15:15:13.899Z,14.53
2023-04-16T15:20:15.676Z,19.35
2023-04-16T15:25:17.118Z,17.70
2023-04-16T15:30:18.633Z,19.73
2023-04-16T15:35:20.084Z,21.73
2023-04-16T15:40:21.382Z,23.30
2023-04-16T15:45:22.689Z,19.15
2023-04-16T15:50:25.192Z,37.37
2023-04-16T15:55:26.487Z,27.48
2023-04-16T16:00:27.967Z,25.35
2023-04-16T16:05:29.254Z,28.13
2023-04-16T16:10:30.546Z,23.00
2023-04-16T16:15:32.166Z,23.40
2023-04-16T16:20:34.451Z,25.17
2023-04-16T16:25:37.755Z,28.75
2023-04-16T16:30:41.077Z,24.80
2023-04-16T16:35:42.446Z,27.80
2023-04-16T16:40:43.821Z,25.70
2023-04-16T16:45:45.217Z,27.25
2023-04-16T16:50:46.519Z,30.02
2023-04-16T16:55:47.832Z,31.10
2023-04-16T17:00:49.170Z,26.15
2023-04-16T17:05:50.646Z,25.37
2023-04-16T17:10:52.230Z,26.83
2023-04-16T17:15:53.548Z,30.05
2023-04-16T17:20:54.803Z,29.13
2023-04-16T17:25:56.385Z,33.80
2023-04-16T17:30:57.673Z,32.70
2023-04-16T17:35:58.961Z,33.28
2023-04-16T17:41:02.281Z,35.22
2023-04-16T17:46:03.621Z,33.07
2023-04-16T17:51:11.632Z,52.47
2023-04-16T17:56:13.524Z,36.70
2023-04-16T18:01:14.887Z,34.20
2023-04-16T18:06:16.237Z,36.83
2023-04-16T18:11:17.568Z,35.10
2023-04-16T18:16:18.833Z,37.28
2023-04-16T18:21:20.295Z,38.70
2023-04-16T18:26:22.949Z,37.70
2023-04-16T18:31:24.491Z,35.42
2023-04-16T18:36:26.753Z,33.27
2023-04-16T18:41:28.442Z,39.83
2023-04-16T18:46:29.790Z,44.80
2023-04-16T18:51:31.619Z,46.13
2023-04-16T18:56:32.954Z,41.35
2023-04-16T19:01:34.266Z,39.63
2023-04-16T19:06:35.669Z,40.03
2023-04-16T19:11:37.125Z,36.93
2023-04-16T19:16:38.817Z,34.75
2023-04-16T19:21:40.203Z,38.60
2023-04-16T19:26:41.627Z,33.33
2023-04-16T19:31:42.930Z,31.90
2023-04-16T19:36:45.218Z,37.60
2023-04-16T19:41:46.535Z,35.60
2023-04-16T19:46:47.826Z,39.35
2023-04-16T19:51:49.444Z,35.40
2023-04-16T19:56:53.772Z,37.80
2023-04-16T20:01:55.208Z,34.70
2023-04-16T20:06:56.530Z,36.33
2023-04-16T20:11:57.933Z,32.55
2023-04-16T20:17:04.194Z,35.40
2023-04-16T20:22:06.559Z,33.42
2023-04-16T20:27:07.858Z,34.27
2023-04-16T20:32:09.263Z,32.75
2023-04-16T20:37:10.567Z,32.38
2023-04-16T20:42:12.097Z,37.17
2023-04-16T20:47:14.830Z,37.38
2023-04-16T20:52:16.623Z,34.63
2023-04-16T20:57:20.257Z,38.05
2023-04-16T21:02:21.928Z,33.38
2023-04-16T21:07:23.461Z,34.70
2023-04-16T21:12:24.708Z,37.88
2023-04-16T21:17:26.034Z,36.57
2023-04-16T21:22:27.341Z,36.33
2023-04-16T21:27:28.617Z,38.55
2023-04-16T21:32:29.928Z,36.60
2023-04-16T21:37:31.273Z,37.92
2023-04-16T21:42:33.113Z,39.57
2023-04-16T21:47:34.416Z,39.55
2023-04-16T21:52:40.263Z,40.13
2023-04-16T21:57:41.834Z,37.10
2023-04-16T22:02:43.440Z,34.45
2023-04-16T22:07:44.942Z,37.33
2023-04-16T22:12:46.480Z,40.35
2023-04-16T22:17:48.422Z,36.38
2023-04-16T22:22:49.890Z,39.97
2023-04-16T22:27:51.145Z,43.88
2023-04-16T22:32:52.447Z,35.30
2023-04-16T22:37:53.924Z,37.92
2023-04-16T22:42:55.379Z,35.05
2023-04-16T22:47:56.634Z,38.47
2023-04-16T22:53:00.430Z,37.97
2023-04-16T22:58:01.827Z,39.37
2023-04-16T23:03:03.202Z,36.53
2023-04-16T23:08:04.616Z,38.17
2023-04-16T23:13:05.948Z,36.80
2023-04-16T23:18:07.617Z,36.47
2023-04-16T23:23:08.963Z,35.93
2023-04-16T23:28:10.261Z,36.60
2023-04-16T23:33:11.584Z,39.30
2023-04-16T23:38:12.912Z,39.33
2023-04-16T23:43:14.181Z,37.47
2023-04-16T23:48:15.512Z,34.03
2023-04-16T23:53:17.235Z,40.53
2023-04-16T23:58:18.744Z,35.75
